アトランタ の空港の天気 - METARとTAF

ハーツフィールド・ジャクソン・アトランタ国際空港 ( KATL / ATL ) - アメリカ ジョージア州アトランタ
飛行場実況気象(Metar)
観測時間05/26 19:52 EDT (05/26 23:52 UTC)
風向・風速東 5m/s
視程10km以上
天気現象
少しの雲 雲底高度 400m
全天の8割程度の雲 雲底高度 1520m
全天を覆う雲 雲底高度 2440m
気温21.1℃
湿度76%
気圧1016.1hPa
METARKATL 262352Z 09009KT 10SM FEW013 BKN050 OVC080 21/17 A3003 RMK AO2 SLP161 60006 T02110167 10228 20211 53002
過去の天気等 Google飛行場航空写真 Wunderground天気予報

過去48時間のMETAR

飛行場予報(TAF)
発表時間: 5/26 19:41 EDT (5/26 23:41 UTC)
予報対象時間: 26日20時 EDT ~ 28日2時 EDT
風向・風速東 6m/s
視程10km以上
天気現象弱いしゅう雨
全天の4割程度の雲 雲底高度 760m
全天の8割程度の雲 雲底高度 1070m
全天を覆う雲 雲底高度 1830m
26日22時 EDT から
風向・風速東 5m/s
視程10km以上
天気現象周辺でしゅう雨
全天の8割程度の雲 雲底高度 610m
27日3時 EDT から
風向・風速東 5m/s
視程10km以上
天気現象もや 周辺でしゅう雨
全天の8割程度の雲 雲底高度 240m
27日8時 EDT から
風向・風速東 5m/s
視程10km以上
天気現象弱いしゅう雨 もや
全天を覆う雲 雲底高度 210m
27日14時 EDT から
風向・風速東 4m/s
視程10km以上
天気現象弱いしゅう雨
全天を覆う雲 雲底高度 370m
27日16時 EDT から
風向・風速東 4m/s
視程10km以上
天気現象周辺でしゅう雨
全天の8割程度の雲 雲底高度 760m
28日1時 EDT から
風向・風速東南東 3m/s
視程10km以上
天気現象周辺でしゅう雨
全天の8割程度の雲 雲底高度 270m
KATL 262341Z 2700/2806 09011KT P6SM -SHRA SCT025 BKN035 OVC060
FM270200 09010KT P6SM VCSH BKN020
FM270700 09009KT 6SM BR VCSH BKN008
FM271200 08010KT 6SM -SHRA BR OVC007
FM271800 09008KT P6SM -SHRA OVC012
FM272000 09007KT P6SM VCSH BKN025
FM280500 12006KT P6SM VCSH BKN009